sensor_id;sensor_type;location;lat;lon;timestamp;pressure;altitude;pressure_sealevel;temperature;humidity
27210;BME280;14721;42.668;23.386;2023-05-01T00:00:01;95257.31;;;11.58;100.00
27210;BME280;14721;42.668;23.386;2023-05-01T00:02:29;95258.16;;;11.36;100.00
27210;BME280;14721;42.668;23.386;2023-05-01T00:04:55;95255.59;;;11.35;100.00
27210;BME280;14721;42.668;23.386;2023-05-01T00:07:21;95254.53;;;11.37;100.00
27210;BME280;14721;42.668;23.386;2023-05-01T00:09:47;95253.78;;;11.35;100.00
27210;BME280;14721;42.668;23.386;2023-05-01T00:12:12;95258.63;;;11.19;100.00
27210;BME280;14721;42.668;23.386;2023-05-01T00:14:39;95257.22;;;10.92;100.00
27210;BME280;14721;42.668;23.386;2023-05-01T00:17:06;95258.56;;;10.97;100.00
27210;BME280;14721;42.668;23.386;2023-05-01T00:19:31;95259.78;;;10.93;100.00
27210;BME280;14721;42.668;23.386;2023-05-01T00:21:57;95251.84;;;10.81;100.00
27210;BME280;14721;42.668;23.386;2023-05-01T00:24:22;95262.97;;;10.98;100.00
27210;BME280;14721;42.668;23.386;2023-05-01T00:26:48;95268.53;;;10.95;100.00
27210;BME280;14721;42.668;23.386;2023-05-01T00:29:14;95267.03;;;10.80;100.00
27210;BME280;14721;42.668;23.386;2023-05-01T00:31:39;95264.59;;;10.77;100.00
27210;BME280;14721;42.668;23.386;2023-05-01T00:34:06;95263.81;;;10.64;100.00
27210;BME280;14721;42.668;23.386;2023-05-01T00:36:32;95271.97;;;10.74;100.00
27210;BME280;14721;42.668;23.386;2023-05-01T00:38:57;95277.22;;;10.75;100.00
27210;BME280;14721;42.668;23.386;2023-05-01T00:41:23;95270.75;;;10.67;100.00
27210;BME280;14721;42.668;23.386;2023-05-01T00:43:48;95279.50;;;10.69;100.00
27210;BME280;14721;42.668;23.386;2023-05-01T00:46:14;95268.66;;;10.59;100.00
27210;BME280;14721;42.668;23.386;2023-05-01T00:48:40;95273.66;;;10.64;100.00
27210;BME280;14721;42.668;23.386;2023-05-01T00:51:06;95280.47;;;10.68;100.00
27210;BME280;14721;42.668;23.386;2023-05-01T00:53:33;95283.88;;;10.70;100.00
27210;BME280;14721;42.668;23.386;2023-05-01T00:55:59;95281.72;;;10.51;100.00
27210;BME280;14721;42.668;23.386;2023-05-01T00:58:25;95287.81;;;10.53;100.00
27210;BME280;14721;42.668;23.386;2023-05-01T01:00:51;95288.50;;;10.44;100.00
27210;BME280;14721;42.668;23.386;2023-05-01T01:03:17;95289.97;;;10.48;100.00
27210;BME280;14721;42.668;23.386;2023-05-01T01:06:09;95295.75;;;10.42;100.00
27210;BME280;14721;42.668;23.386;2023-05-01T01:08:47;95290.88;;;10.36;100.00
27210;BME280;14721;42.668;23.386;2023-05-01T01:11:32;95294.56;;;10.46;100.00
27210;BME280;14721;42.668;23.386;2023-05-01T01:22:12;95306.97;;;10.47;100.00
27210;BME280;14721;42.668;23.386;2023-05-01T01:32:55;95307.41;;;10.05;100.00
27210;BME280;14721;42.668;23.386;2023-05-01T01:35:27;95314.88;;;10.00;100.00
27210;BME280;14721;42.668;23.386;2023-05-01T01:40:24;95319.16;;;10.03;100.00
27210;BME280;14721;42.668;23.386;2023-05-01T01:43:04;95312.09;;;10.02;100.00
27210;BME280;14721;42.668;23.386;2023-05-01T01:45:46;95311.69;;;10.08;100.00
27210;BME280;14721;42.668;23.386;2023-05-01T01:48:16;95311.59;;;9.97;100.00
27210;BME280;14721;42.668;23.386;2023-05-01T01:50:45;95309.81;;;9.72;100.00
27210;BME280;14721;42.668;23.386;2023-05-01T01:53:14;95308.72;;;9.87;100.00
27210;BME280;14721;42.668;23.386;2023-05-01T01:55:43;95304.16;;;9.77;100.00
27210;BME280;14721;42.668;23.386;2023-05-01T01:58:11;95304.28;;;9.75;100.00
27210;BME280;14721;42.668;23.386;2023-05-01T02:00:38;95300.56;;;9.65;100.00
27210;BME280;14721;42.668;23.386;2023-05-01T02:03:08;95296.81;;;9.68;100.00
27210;BME280;14721;42.668;23.386;2023-05-01T02:05:35;95305.34;;;9.60;100.00
27210;BME280;14721;42.668;23.386;2023-05-01T02:08:03;95302.59;;;9.49;100.00
27210;BME280;14721;42.668;23.386;2023-05-01T02:10:30;95310.47;;;9.63;100.00
27210;BME280;14721;42.668;23.386;2023-05-01T02:12:58;95309.19;;;9.69;100.00
27210;BME280;14721;42.668;23.386;2023-05-01T02:15:25;95304.28;;;9.75;100.00
27210;BME280;14721;42.668;23.386;2023-05-01T02:17:52;95309.94;;;9.83;100.00
27210;BME280;14721;42.668;23.386;2023-05-01T02:20:19;95304.06;;;9.78;100.00
27210;BME280;14721;42.668;23.386;2023-05-01T02:22:47;95314.28;;;9.72;100.00
27210;BME280;14721;42.668;23.386;2023-05-01T02:25:13;95309.09;;;9.57;100.00
27210;BME280;14721;42.668;23.386;2023-05-01T02:27:47;95305.16;;;9.50;100.00
27210;BME280;14721;42.668;23.386;2023-05-01T02:30:16;95306.66;;;9.42;100.00
27210;BME280;14721;42.668;23.386;2023-05-01T02:32:43;95302.06;;;9.44;100.00
27210;BME280;14721;42.668;23.386;2023-05-01T02:35:08;95303.97;;;9.42;100.00
27210;BME280;14721;42.668;23.386;2023-05-01T02:37:35;95298.53;;;9.43;100.00
27210;BME280;14721;42.668;23.386;2023-05-01T02:40:03;95300.47;;;9.54;100.00
27210;BME280;14721;42.668;23.386;2023-05-01T02:42:29;95304.22;;;9.51;100.00
27210;BME280;14721;42.668;23.386;2023-05-01T02:45:00;95308.56;;;9.40;100.00
27210;BME280;14721;42.668;23.386;2023-05-01T02:47:27;95303.44;;;9.37;100.00
27210;BME280;14721;42.668;23.386;2023-05-01T02:49:55;95303.34;;;9.13;100.00
27210;BME280;14721;42.668;23.386;2023-05-01T02:52:21;95306.97;;;9.12;100.00
27210;BME280;14721;42.668;23.386;2023-05-01T02:54:48;95316.00;;;9.10;100.00
27210;BME280;14721;42.668;23.386;2023-05-01T02:57:16;95311.97;;;9.04;100.00
27210;BME280;14721;42.668;23.386;2023-05-01T02:59:41;95312.94;;;9.03;100.00
27210;BME280;14721;42.668;23.386;2023-05-01T03:02:07;95323.56;;;8.91;100.00
27210;BME280;14721;42.668;23.386;2023-05-01T03:04:33;95315.03;;;8.86;100.00
27210;BME280;14721;42.668;23.386;2023-05-01T03:06:58;95321.94;;;8.76;100.00
27210;BME280;14721;42.668;23.386;2023-05-01T03:09:24;95325.25;;;8.92;100.00
27210;BME280;14721;42.668;23.386;2023-05-01T03:12:00;95332.41;;;9.04;100.00
27210;BME280;14721;42.668;23.386;2023-05-01T03:14:26;95329.31;;;8.85;100.00
27210;BME280;14721;42.668;23.386;2023-05-01T03:16:53;95330.34;;;8.70;100.00
27210;BME280;14721;42.668;23.386;2023-05-01T03:19:19;95331.31;;;8.69;100.00
27210;BME280;14721;42.668;23.386;2023-05-01T03:21:44;95334.06;;;8.80;100.00
27210;BME280;14721;42.668;23.386;2023-05-01T03:27:57;95339.28;;;8.69;100.00
27210;BME280;14721;42.668;23.386;2023-05-01T03:30:23;95339.50;;;8.66;100.00
27210;BME280;14721;42.668;23.386;2023-05-01T03:32:51;95339.19;;;8.70;100.00
27210;BME280;14721;42.668;23.386;2023-05-01T03:35:16;95335.09;;;8.91;100.00
27210;BME280;14721;42.668;23.386;2023-05-01T03:37:42;95343.28;;;9.01;100.00
27210;BME280;14721;42.668;23.386;2023-05-01T03:44:19;95345.63;;;8.93;100.00
27210;BME280;14721;42.668;23.386;2023-05-01T03:50:21;95355.09;;;8.84;100.00
27210;BME280;14721;42.668;23.386;2023-05-01T03:52:48;95356.16;;;8.82;100.00
27210;BME280;14721;42.668;23.386;2023-05-01T03:55:13;95353.22;;;8.99;100.00
27210;BME280;14721;42.668;23.386;2023-05-01T03:57:39;95347.47;;;9.05;100.00
27210;BME280;14721;42.668;23.386;2023-05-01T04:00:08;95351.75;;;9.20;100.00
27210;BME280;14721;42.668;23.386;2023-05-01T04:02:40;95359.56;;;9.61;100.00
27210;BME280;14721;42.668;23.386;2023-05-01T04:05:08;95352.91;;;9.91;100.00
27210;BME280;14721;42.668;23.386;2023-05-01T04:07:34;95368.06;;;10.16;100.00
27210;BME280;14721;42.668;23.386;2023-05-01T04:10:06;95361.41;;;10.34;100.00
27210;BME280;14721;42.668;23.386;2023-05-01T04:12:34;95344.63;;;10.55;98.96
27210;BME280;14721;42.668;23.386;2023-05-01T04:14:59;95359.81;;;11.36;95.59
27210;BME280;14721;42.668;23.386;2023-05-01T04:17:28;95357.84;;;12.50;89.65
27210;BME280;14721;42.668;23.386;2023-05-01T04:20:13;95359.56;;;13.78;81.11
27210;BME280;14721;42.668;23.386;2023-05-01T04:23:22;95358.78;;;15.15;73.99
27210;BME280;14721;42.668;23.386;2023-05-01T04:26:25;95363.72;;;15.96;68.52
27210;BME280;14721;42.668;23.386;2023-05-01T04:28:53;95354.69;;;16.97;65.76
27210;BME280;14721;42.668;23.386;2023-05-01T04:31:19;95358.97;;;18.30;60.41
27210;BME280;14721;42.668;23.386;2023-05-01T04:33:45;95358.66;;;19.42;56.71
27210;BME280;14721;42.668;23.386;2023-05-01T04:36:10;95356.66;;;19.60;54.05
27210;BME280;14721;42.668;23.386;2023-05-01T04:38:36;95361.63;;;19.23;54.18
27210;BME280;14721;42.668;23.386;2023-05-01T04:41:04;95358.22;;;19.13;54.42
27210;BME280;14721;42.668;23.386;2023-05-01T04:43:30;95360.81;;;18.89;54.65
27210;BME280;14721;42.668;23.386;2023-05-01T04:45:55;95366.50;;;18.70;54.28
27210;BME280;14721;42.668;23.386;2023-05-01T04:48:21;95370.53;;;18.66;55.24
27210;BME280;14721;42.668;23.386;2023-05-01T04:50:46;95363.75;;;18.96;54.83
27210;BME280;14721;42.668;23.386;2023-05-01T04:53:12;95376.19;;;19.80;51.98
27210;BME280;14721;42.668;23.386;2023-05-01T04:55:38;95376.50;;;19.93;51.88
27210;BME280;14721;42.668;23.386;2023-05-01T04:58:04;95370.25;;;20.16;50.35
27210;BME280;14721;42.668;23.386;2023-05-01T05:00:30;95373.75;;;19.11;52.73
27210;BME280;14721;42.668;23.386;2023-05-01T05:02:55;95376.53;;;18.86;53.82
27210;BME280;14721;42.668;23.386;2023-05-01T05:05:21;95387.69;;;18.31;55.25
27210;BME280;14721;42.668;23.386;2023-05-01T05:07:47;95378.28;;;18.95;53.67
27210;BME280;14721;42.668;23.386;2023-05-01T05:10:13;95381.41;;;19.73;51.25
27210;BME280;14721;42.668;23.386;2023-05-01T05:12:39;95384.16;;;20.05;51.50
27210;BME280;14721;42.668;23.386;2023-05-01T05:15:05;95387.41;;;20.17;50.56
27210;BME280;14721;42.668;23.386;2023-05-01T05:17:31;95393.97;;;20.46;51.26
27210;BME280;14721;42.668;23.386;2023-05-01T05:19:56;95390.69;;;20.67;50.20
27210;BME280;14721;42.668;23.386;2023-05-01T05:22:22;95395.94;;;20.85;49.85
27210;BME280;14721;42.668;23.386;2023-05-01T05:24:54;95393.03;;;21.02;48.56
27210;BME280;14721;42.668;23.386;2023-05-01T05:27:20;95392.91;;;20.72;49.92
27210;BME280;14721;42.668;23.386;2023-05-01T05:29:46;95400.28;;;20.31;51.26
27210;BME280;14721;42.668;23.386;2023-05-01T05:32:11;95400.78;;;20.42;51.50
27210;BME280;14721;42.668;23.386;2023-05-01T05:34:37;95389.19;;;20.57;50.07
27210;BME280;14721;42.668;23.386;2023-05-01T05:37:03;95396.47;;;20.80;50.56
27210;BME280;14721;42.668;23.386;2023-05-01T05:39:29;95391.59;;;21.53;48.35
27210;BME280;14721;42.668;23.386;2023-05-01T05:41:56;95396.72;;;21.09;48.54
27210;BME280;14721;42.668;23.386;2023-05-01T05:44:21;95405.16;;;21.61;48.30
27210;BME280;14721;42.668;23.386;2023-05-01T05:46:47;95404.25;;;21.68;48.00
27210;BME280;14721;42.668;23.386;2023-05-01T05:49:15;95411.97;;;21.57;47.87
27210;BME280;14721;42.668;23.386;2023-05-01T05:51:41;95407.22;;;22.12;46.86
27210;BME280;14721;42.668;23.386;2023-05-01T05:54:06;95404.50;;;22.72;45.71
27210;BME280;14721;42.668;23.386;2023-05-01T05:56:32;95403.22;;;22.82;45.41
27210;BME280;14721;42.668;23.386;2023-05-01T05:58:58;95403.69;;;22.71;44.97
27210;BME280;14721;42.668;23.386;2023-05-01T06:01:27;95402.28;;;22.75;44.49
27210;BME280;14721;42.668;23.386;2023-05-01T06:03:53;95396.28;;;23.09;44.25
27210;BME280;14721;42.668;23.386;2023-05-01T06:06:21;95413.13;;;23.41;42.90
27210;BME280;14721;42.668;23.386;2023-05-01T06:08:49;95414.31;;;23.68;42.72
27210;BME280;14721;42.668;23.386;2023-05-01T06:11:14;95414.84;;;23.78;42.00
27210;BME280;14721;42.668;23.386;2023-05-01T06:13:40;95409.13;;;23.73;41.84
27210;BME280;14721;42.668;23.386;2023-05-01T06:16:06;95412.09;;;23.78;42.26
27210;BME280;14721;42.668;23.386;2023-05-01T06:18:32;95413.53;;;23.74;42.36
27210;BME280;14721;42.668;23.386;2023-05-01T06:20:57;95416.78;;;23.84;42.35
27210;BME280;14721;42.668;23.386;2023-05-01T06:23:24;95419.09;;;24.16;41.66
27210;BME280;14721;42.668;23.386;2023-05-01T06:25:50;95422.78;;;24.09;41.37
27210;BME280;14721;42.668;23.386;2023-05-01T06:28:16;95417.00;;;23.97;42.23
27210;BME280;14721;42.668;23.386;2023-05-01T06:30:42;95417.50;;;23.71;42.31
27210;BME280;14721;42.668;23.386;2023-05-01T06:33:20;95418.50;;;22.69;44.22
27210;BME280;14721;42.668;23.386;2023-05-01T06:35:45;95410.44;;;21.93;46.18
27210;BME280;14721;42.668;23.386;2023-05-01T06:38:11;95414.31;;;23.10;44.59
27210;BME280;14721;42.668;23.386;2023-05-01T06:40:36;95413.44;;;23.82;43.45
27210;BME280;14721;42.668;23.386;2023-05-01T06:43:02;95407.50;;;24.14;42.08
27210;BME280;14721;42.668;23.386;2023-05-01T06:45:28;95411.56;;;24.39;41.80
27210;BME280;14721;42.668;23.386;2023-05-01T06:47:54;95412.16;;;24.77;41.21
27210;BME280;14721;42.668;23.386;2023-05-01T06:50:20;95414.81;;;24.70;41.05
27210;BME280;14721;42.668;23.386;2023-05-01T06:52:45;95418.78;;;24.47;40.99
27210;BME280;14721;42.668;23.386;2023-05-01T06:55:10;95422.03;;;24.36;41.26
27210;BME280;14721;42.668;23.386;2023-05-01T06:57:36;95417.59;;;24.77;40.95
27210;BME280;14721;42.668;23.386;2023-05-01T07:00:05;95407.00;;;25.22;39.42
27210;BME280;14721;42.668;23.386;2023-05-01T07:02:30;95414.66;;;25.06;39.52
27210;BME280;14721;42.668;23.386;2023-05-01T07:04:56;95415.16;;;24.88;40.29
27210;BME280;14721;42.668;23.386;2023-05-01T07:07:22;95423.91;;;24.77;40.21
27210;BME280;14721;42.668;23.386;2023-05-01T07:09:47;95419.88;;;24.10;41.73
27210;BME280;14721;42.668;23.386;2023-05-01T07:12:13;95426.59;;;23.78;41.91
27210;BME280;14721;42.668;23.386;2023-05-01T07:14:38;95422.50;;;24.03;42.29
27210;BME280;14721;42.668;23.386;2023-05-01T07:17:06;95429.38;;;24.35;41.96
27210;BME280;14721;42.668;23.386;2023-05-01T07:19:33;95421.44;;;24.40;41.03
27210;BME280;14721;42.668;23.386;2023-05-01T07:21:59;95431.56;;;24.88;40.83
27210;BME280;14721;42.668;23.386;2023-05-01T07:24:25;95426.72;;;25.11;40.47
27210;BME280;14721;42.668;23.386;2023-05-01T07:26:51;95422.91;;;25.12;39.66
27210;BME280;14721;42.668;23.386;2023-05-01T07:29:16;95426.19;;;25.01;40.67
27210;BME280;14721;42.668;23.386;2023-05-01T07:31:43;95427.56;;;24.42;41.49
27210;BME280;14721;42.668;23.386;2023-05-01T07:34:09;95423.38;;;24.04;42.49
27210;BME280;14721;42.668;23.386;2023-05-01T07:36:35;95430.88;;;24.59;42.23
27210;BME280;14721;42.668;23.386;2023-05-01T07:39:04;95430.03;;;25.07;40.89
27210;BME280;14721;42.668;23.386;2023-05-01T07:41:31;95433.00;;;24.63;40.58
27210;BME280;14721;42.668;23.386;2023-05-01T07:43:59;95422.63;;;25.62;39.59
27210;BME280;14721;42.668;23.386;2023-05-01T07:46:25;95426.22;;;25.69;38.79
27210;BME280;14721;42.668;23.386;2023-05-01T07:48:51;95425.91;;;25.92;39.00
27210;BME280;14721;42.668;23.386;2023-05-01T07:51:16;95425.78;;;25.66;38.50
27210;BME280;14721;42.668;23.386;2023-05-01T07:53:50;95430.63;;;25.02;39.15
27210;BME280;14721;42.668;23.386;2023-05-01T07:56:16;95426.63;;;24.56;40.67
27210;BME280;14721;42.668;23.386;2023-05-01T07:58:42;95433.16;;;24.76;40.59
27210;BME280;14721;42.668;23.386;2023-05-01T08:01:08;95419.13;;;25.13;40.13
27210;BME280;14721;42.668;23.386;2023-05-01T08:03:34;95414.13;;;25.44;38.61
27210;BME280;14721;42.668;23.386;2023-05-01T08:05:59;95427.03;;;25.29;39.52
27210;BME280;14721;42.668;23.386;2023-05-01T08:08:28;95416.50;;;26.08;39.10
27210;BME280;14721;42.668;23.386;2023-05-01T08:10:53;95411.94;;;26.41;37.69
27210;BME280;14721;42.668;23.386;2023-05-01T08:13:18;95419.69;;;26.11;37.88
27210;BME280;14721;42.668;23.386;2023-05-01T08:15:45;95411.97;;;25.87;37.85
27210;BME280;14721;42.668;23.386;2023-05-01T08:18:11;95417.47;;;25.87;37.63
27210;BME280;14721;42.668;23.386;2023-05-01T08:20:39;95418.06;;;26.30;38.14
27210;BME280;14721;42.668;23.386;2023-05-01T08:23:04;95405.78;;;26.13;37.96
27210;BME280;14721;42.668;23.386;2023-05-01T08:25:30;95412.16;;;26.39;36.17
27210;BME280;14721;42.668;23.386;2023-05-01T08:27:56;95415.41;;;27.08;34.51
27210;BME280;14721;42.668;23.386;2023-05-01T08:30:22;95412.47;;;26.90;34.58
27210;BME280;14721;42.668;23.386;2023-05-01T08:32:47;95416.44;;;26.74;33.46
27210;BME280;14721;42.668;23.386;2023-05-01T08:35:13;95414.72;;;25.87;33.17
27210;BME280;14721;42.668;23.386;2023-05-01T08:37:38;95417.91;;;25.97;33.91
27210;BME280;14721;42.668;23.386;2023-05-01T08:40:05;95410.91;;;25.82;35.45
27210;BME280;14721;42.668;23.386;2023-05-01T08:42:36;95407.78;;;25.85;36.38
27210;BME280;14721;42.668;23.386;2023-05-01T08:45:06;95401.16;;;26.13;36.54
27210;BME280;14721;42.668;23.386;2023-05-01T08:47:35;95412.25;;;25.99;35.62
27210;BME280;14721;42.668;23.386;2023-05-01T08:50:02;95409.91;;;25.14;35.93
27210;BME280;14721;42.668;23.386;2023-05-01T08:52:29;95405.63;;;25.05;34.66
27210;BME280;14721;42.668;23.386;2023-05-01T08:54:56;95406.19;;;25.28;35.14
27210;BME280;14721;42.668;23.386;2023-05-01T08:57:26;95399.88;;;25.62;35.27
27210;BME280;14721;42.668;23.386;2023-05-01T08:59:55;95406.38;;;25.54;35.13
27210;BME280;14721;42.668;23.386;2023-05-01T09:02:23;95398.53;;;25.92;34.09
27210;BME280;14721;42.668;23.386;2023-05-01T09:04:49;95400.22;;;25.46;35.48
27210;BME280;14721;42.668;23.386;2023-05-01T09:07:15;95401.00;;;24.57;37.55
27210;BME280;14721;42.668;23.386;2023-05-01T09:09:42;95399.28;;;24.50;37.80
27210;BME280;14721;42.668;23.386;2023-05-01T09:14:42;95392.63;;;24.59;38.17
27210;BME280;14721;42.668;23.386;2023-05-01T09:17:10;95386.63;;;24.70;37.73
27210;BME280;14721;42.668;23.386;2023-05-01T09:19:36;95385.53;;;24.43;37.21
27210;BME280;14721;42.668;23.386;2023-05-01T09:22:01;95400.94;;;24.09;38.39
27210;BME280;14721;42.668;23.386;2023-05-01T09:24:27;95405.06;;;23.69;39.15
27210;BME280;14721;42.668;23.386;2023-05-01T09:26:52;95392.72;;;23.08;39.25
27210;BME280;14721;42.668;23.386;2023-05-01T09:29:46;95405.28;;;22.80;40.88
27210;BME280;14721;42.668;23.386;2023-05-01T09:34:42;95403.59;;;22.19;42.25
27210;BME280;14721;42.668;23.386;2023-05-01T09:37:30;95407.66;;;21.70;42.78
27210;BME280;14721;42.668;23.386;2023-05-01T09:40:12;95392.81;;;21.50;43.87
27210;BME280;14721;42.668;23.386;2023-05-01T09:42:41;95390.13;;;21.42;44.18
27210;BME280;14721;42.668;23.386;2023-05-01T09:45:13;95406.91;;;21.54;43.30
27210;BME280;14721;42.668;23.386;2023-05-01T09:47:43;95388.41;;;21.49;43.23
27210;BME280;14721;42.668;23.386;2023-05-01T09:50:11;95378.50;;;21.56;43.82
27210;BME280;14721;42.668;23.386;2023-05-01T09:52:52;95398.22;;;21.20;44.53
27210;BME280;14721;42.668;23.386;2023-05-01T09:55:18;95384.53;;;20.97;44.38
27210;BME280;14721;42.668;23.386;2023-05-01T09:57:48;95391.16;;;21.03;45.00
27210;BME280;14721;42.668;23.386;2023-05-01T10:00:14;95383.53;;;20.82;44.43
27210;BME280;14721;42.668;23.386;2023-05-01T10:02:43;95387.28;;;20.89;44.78
27210;BME280;14721;42.668;23.386;2023-05-01T10:05:10;95385.63;;;20.72;45.11
27210;BME280;14721;42.668;23.386;2023-05-01T10:07:37;95388.53;;;20.46;44.98
27210;BME280;14721;42.668;23.386;2023-05-01T10:10:19;95393.28;;;20.52;44.91
27210;BME280;14721;42.668;23.386;2023-05-01T10:12:45;95388.03;;;20.59;45.18
27210;BME280;14721;42.668;23.386;2023-05-01T10:15:11;95369.59;;;20.85;43.85
27210;BME280;14721;42.668;23.386;2023-05-01T10:17:41;95379.13;;;20.81;43.84
27210;BME280;14721;42.668;23.386;2023-05-01T10:20:08;95376.03;;;21.00;41.73
27210;BME280;14721;42.668;23.386;2023-05-01T10:22:37;95376.88;;;20.93;41.49
27210;BME280;14721;42.668;23.386;2023-05-01T10:25:05;95372.31;;;20.93;40.42
27210;BME280;14721;42.668;23.386;2023-05-01T10:27:32;95364.88;;;20.95;41.25
27210;BME280;14721;42.668;23.386;2023-05-01T10:30:00;95367.91;;;21.00;41.99
27210;BME280;14721;42.668;23.386;2023-05-01T10:32:26;95362.50;;;21.31;40.99
27210;BME280;14721;42.668;23.386;2023-05-01T10:34:59;95363.06;;;21.18;42.02
27210;BME280;14721;42.668;23.386;2023-05-01T10:38:17;95362.81;;;21.36;41.03
27210;BME280;14721;42.668;23.386;2023-05-01T10:43:27;95365.09;;;21.85;41.24
27210;BME280;14721;42.668;23.386;2023-05-01T10:51:19;95365.72;;;21.87;41.15
27210;BME280;14721;42.668;23.386;2023-05-01T10:53:46;95369.41;;;21.41;42.28
27210;BME280;14721;42.668;23.386;2023-05-01T10:58:58;95367.06;;;20.92;42.93
27210;BME280;14721;42.668;23.386;2023-05-01T11:01:33;95378.31;;;21.27;43.14
27210;BME280;14721;42.668;23.386;2023-05-01T11:04:02;95357.38;;;21.36;42.41
27210;BME280;14721;42.668;23.386;2023-05-01T11:06:29;95367.69;;;21.79;40.86
27210;BME280;14721;42.668;23.386;2023-05-01T11:08:55;95367.84;;;22.00;40.58
27210;BME280;14721;42.668;23.386;2023-05-01T11:14:08;95360.91;;;22.20;39.13
27210;BME280;14721;42.668;23.386;2023-05-01T11:21:48;95359.28;;;21.88;39.24
27210;BME280;14721;42.668;23.386;2023-05-01T11:24:15;95352.25;;;21.94;39.63
27210;BME280;14721;42.668;23.386;2023-05-01T11:26:43;95358.97;;;21.83;39.64
27210;BME280;14721;42.668;23.386;2023-05-01T11:29:09;95351.91;;;21.97;38.83
27210;BME280;14721;42.668;23.386;2023-05-01T11:31:37;95356.22;;;22.28;38.45
27210;BME280;14721;42.668;23.386;2023-05-01T11:34:03;95353.13;;;22.32;38.36
27210;BME280;14721;42.668;23.386;2023-05-01T11:36:30;95359.31;;;22.25;38.57
27210;BME280;14721;42.668;23.386;2023-05-01T11:39:15;95352.13;;;21.87;38.73
27210;BME280;14721;42.668;23.386;2023-05-01T11:41:42;95353.50;;;21.30;39.26
27210;BME280;14721;42.668;23.386;2023-05-01T11:44:11;95363.78;;;21.43;39.93
27210;BME280;14721;42.668;23.386;2023-05-01T11:46:37;95361.94;;;21.43;39.64
27210;BME280;14721;42.668;23.386;2023-05-01T11:49:04;95359.22;;;21.43;39.29
27210;BME280;14721;42.668;23.386;2023-05-01T11:51:29;95367.06;;;21.30;39.89
27210;BME280;14721;42.668;23.386;2023-05-01T11:56:30;95356.56;;;21.27;40.14
27210;BME280;14721;42.668;23.386;2023-05-01T11:59:11;95360.88;;;21.52;39.57
27210;BME280;14721;42.668;23.386;2023-05-01T12:01:42;95373.91;;;21.26;39.20
27210;BME280;14721;42.668;23.386;2023-05-01T12:04:09;95371.47;;;21.01;37.97
27210;BME280;14721;42.668;23.386;2023-05-01T12:06:41;95355.28;;;20.52;37.62
27210;BME280;14721;42.668;23.386;2023-05-01T12:11:37;95382.13;;;20.48;38.51
27210;BME280;14721;42.668;23.386;2023-05-01T12:14:02;95383.47;;;20.43;39.76
27210;BME280;14721;42.668;23.386;2023-05-01T12:16:29;95402.81;;;20.40;39.44
27210;BME280;14721;42.668;23.386;2023-05-01T12:18:55;95387.22;;;20.42;39.17
27210;BME280;14721;42.668;23.386;2023-05-01T12:21:20;95392.16;;;20.31;39.00
27210;BME280;14721;42.668;23.386;2023-05-01T12:23:47;95405.88;;;20.37;39.64
27210;BME280;14721;42.668;23.386;2023-05-01T12:26:18;95399.06;;;20.09;39.64
27210;BME280;14721;42.668;23.386;2023-05-01T12:28:56;95388.19;;;19.85;39.70
27210;BME280;14721;42.668;23.386;2023-05-01T12:31:23;95410.56;;;19.79;39.56
27210;BME280;14721;42.668;23.386;2023-05-01T12:34:07;95389.69;;;19.64;41.61
27210;BME280;14721;42.668;23.386;2023-05-01T12:36:34;95399.19;;;19.76;43.77
27210;BME280;14721;42.668;23.386;2023-05-01T12:41:46;95382.06;;;19.59;44.57
27210;BME280;14721;42.668;23.386;2023-05-01T12:44:19;95381.69;;;19.46;44.86
27210;BME280;14721;42.668;23.386;2023-05-01T12:46:53;95391.75;;;19.62;44.55
27210;BME280;14721;42.668;23.386;2023-05-01T12:49:20;95386.50;;;19.76;44.96
27210;BME280;14721;42.668;23.386;2023-05-01T12:51:49;95381.78;;;19.78;45.49
27210;BME280;14721;42.668;23.386;2023-05-01T12:54:28;95392.06;;;19.67;45.88
27210;BME280;14721;42.668;23.386;2023-05-01T12:57:11;95383.44;;;19.71;44.29
27210;BME280;14721;42.668;23.386;2023-05-01T12:59:43;95376.63;;;19.59;46.42
27210;BME280;14721;42.668;23.386;2023-05-01T13:02:11;95391.75;;;19.62;46.29
27210;BME280;14721;42.668;23.386;2023-05-01T13:04:37;95386.50;;;19.76;46.24
27210;BME280;14721;42.668;23.386;2023-05-01T13:07:11;95377.72;;;20.06;46.15
27210;BME280;14721;42.668;23.386;2023-05-01T13:09:38;95380.09;;;19.93;45.31
27210;BME280;14721;42.668;23.386;2023-05-01T13:12:05;95393.81;;;19.92;45.38
27210;BME280;14721;42.668;23.386;2023-05-01T13:14:39;95403.06;;;19.65;45.57
27210;BME280;14721;42.668;23.386;2023-05-01T13:17:09;95403.59;;;19.53;45.29
27210;BME280;14721;42.668;23.386;2023-05-01T13:19:36;95401.13;;;19.34;44.95
27210;BME280;14721;42.668;23.386;2023-05-01T13:22:02;95411.19;;;19.16;45.48
27210;BME280;14721;42.668;23.386;2023-05-01T13:24:41;95390.50;;;19.07;45.46
27210;BME280;14721;42.668;23.386;2023-05-01T13:27:12;95395.16;;;19.22;44.82
27210;BME280;14721;42.668;23.386;2023-05-01T13:29:38;95390.22;;;19.18;45.75
27210;BME280;14721;42.668;23.386;2023-05-01T13:32:09;95407.28;;;19.10;45.86
27210;BME280;14721;42.668;23.386;2023-05-01T13:34:41;95409.47;;;19.07;45.64
27210;BME280;14721;42.668;23.386;2023-05-01T13:37:09;95400.56;;;19.22;45.75
27210;BME280;14721;42.668;23.386;2023-05-01T13:39:40;95409.59;;;19.31;45.61
27210;BME280;14721;42.668;23.386;2023-05-01T13:42:07;95405.13;;;19.22;45.27
27210;BME280;14721;42.668;23.386;2023-05-01T13:44:42;95400.97;;;19.27;45.10
27210;BME280;14721;42.668;23.386;2023-05-01T13:47:11;95391.16;;;19.34;44.10
27210;BME280;14721;42.668;23.386;2023-05-01T13:49:40;95399.97;;;19.36;43.78
27210;BME280;14721;42.668;23.386;2023-05-01T13:52:09;95424.31;;;19.28;43.32
27210;BME280;14721;42.668;23.386;2023-05-01T13:54:38;95425.03;;;19.30;43.51